createdAt,value
2018-09-21T00:01:25.581Z,17.72
2018-09-21T00:03:59.800Z,17.64
2018-09-21T00:06:29.076Z,17.63
2018-09-21T00:08:58.397Z,17.60
2018-09-21T00:11:27.750Z,17.54
2018-09-21T00:13:57.212Z,17.55
2018-09-21T00:16:26.501Z,17.57
2018-09-21T00:18:55.738Z,17.59
2018-09-21T00:21:24.904Z,17.55
2018-09-21T00:23:53.784Z,17.54
2018-09-21T00:26:22.760Z,17.52
2018-09-21T00:28:51.631Z,17.49
2018-09-21T00:31:20.499Z,17.41
2018-09-21T00:33:49.480Z,17.38
2018-09-21T00:36:18.455Z,17.35
2018-09-21T00:38:47.319Z,17.41
2018-09-21T00:41:16.248Z,17.44
2018-09-21T00:43:45.119Z,17.42
2018-09-21T00:46:13.991Z,17.38
2018-09-21T00:48:43.073Z,17.31
2018-09-21T00:51:11.964Z,17.26
2018-09-21T00:53:40.943Z,17.20
2018-09-21T00:56:09.863Z,17.19
2018-09-21T00:58:38.731Z,17.21
2018-09-21T01:01:07.645Z,17.13
2018-09-21T01:03:36.521Z,17.21
2018-09-21T01:06:05.416Z,17.15
2018-09-21T01:08:34.334Z,17.05
2018-09-21T01:11:03.289Z,17.12
2018-09-21T01:13:32.245Z,17.09
2018-09-21T01:16:01.207Z,17.12
2018-09-21T01:18:30.088Z,17.00
2018-09-21T01:20:58.953Z,16.95
2018-09-21T01:23:27.848Z,16.86
2018-09-21T01:25:56.803Z,16.85
2018-09-21T01:28:25.785Z,16.79
2018-09-21T01:31:01.159Z,16.85
2018-09-21T01:33:30.032Z,16.81
2018-09-21T01:35:58.925Z,16.85
2018-09-21T01:38:27.833Z,16.75
2018-09-21T01:40:56.720Z,16.76
2018-09-21T01:43:25.624Z,16.68
2018-09-21T01:45:54.624Z,16.68
2018-09-21T01:48:23.549Z,16.58
2018-09-21T01:50:52.412Z,16.60
2018-09-21T01:53:21.336Z,16.48
2018-09-21T01:55:50.199Z,16.47
2018-09-21T01:58:19.246Z,16.40
2018-09-21T02:00:48.339Z,16.34
2018-09-21T02:03:17.249Z,16.34
2018-09-21T02:05:46.139Z,16.37
2018-09-21T02:08:15.079Z,16.36
2018-09-21T02:10:43.976Z,16.27
2018-09-21T02:13:12.835Z,16.23
2018-09-21T02:15:41.735Z,16.18
2018-09-21T02:18:10.590Z,16.17
2018-09-21T02:20:39.439Z,16.14
2018-09-21T02:23:08.320Z,16.14
2018-09-21T02:25:37.319Z,16.13
2018-09-21T02:28:06.204Z,16.08
2018-09-21T02:30:35.352Z,16.06
2018-09-21T02:33:04.208Z,16.01
2018-09-21T02:35:33.096Z,16.05
2018-09-21T02:38:02.308Z,16.09
2018-09-21T02:40:31.213Z,16.04
2018-09-21T02:43:00.105Z,15.96
2018-09-21T02:45:29.042Z,15.92
2018-09-21T02:47:57.996Z,15.89
2018-09-21T02:50:26.925Z,15.87
2018-09-21T02:52:55.906Z,15.96
2018-09-21T02:55:24.813Z,16.02
2018-09-21T02:57:53.709Z,15.97
2018-09-21T03:00:22.660Z,16.02
2018-09-21T03:02:51.672Z,16.16
2018-09-21T03:05:20.535Z,16.01
2018-09-21T03:07:49.820Z,16.00
2018-09-21T03:10:19.101Z,15.99
2018-09-21T03:12:48.416Z,15.96
2018-09-21T03:15:17.656Z,15.91
2018-09-21T03:17:46.996Z,15.79
2018-09-21T03:20:16.313Z,15.72
2018-09-21T03:22:45.603Z,15.78
2018-09-21T03:25:14.800Z,15.75
2018-09-21T03:27:44.211Z,15.71
2018-09-21T03:30:13.717Z,15.64
2018-09-21T03:32:42.916Z,15.63
2018-09-21T03:35:12.225Z,15.56
2018-09-21T03:37:41.596Z,15.54
2018-09-21T03:40:10.863Z,15.53
2018-09-21T03:42:40.381Z,15.53
2018-09-21T03:45:09.563Z,15.52
2018-09-21T03:47:38.875Z,15.50
2018-09-21T03:50:08.449Z,15.48
2018-09-21T03:52:37.576Z,15.41
2018-09-21T03:55:07.436Z,15.40
2018-09-21T03:57:36.702Z,15.68
2018-09-21T04:00:06.612Z,15.54
2018-09-21T04:02:35.872Z,15.42
2018-09-21T04:05:05.805Z,15.37
2018-09-21T04:07:35.119Z,15.38
2018-09-21T04:10:04.420Z,15.44
2018-09-21T04:12:33.738Z,15.34
2018-09-21T04:15:02.919Z,15.41
2018-09-21T04:17:32.219Z,15.34
2018-09-21T04:20:02.109Z,15.51
2018-09-21T04:22:31.813Z,15.41
2018-09-21T04:25:01.167Z,15.28
2018-09-21T04:27:30.372Z,15.23
2018-09-21T04:29:59.870Z,15.20
2018-09-21T04:32:28.822Z,15.17
2018-09-21T04:34:57.860Z,15.13
2018-09-21T04:37:26.756Z,15.17
2018-09-21T04:39:55.665Z,15.14
2018-09-21T04:42:24.540Z,15.29
2018-09-21T04:44:53.412Z,15.35
2018-09-21T04:47:22.281Z,15.25
2018-09-21T04:49:51.529Z,15.13
2018-09-21T04:52:21.176Z,15.05
2018-09-21T04:54:50.093Z,15.04
2018-09-21T04:57:19.263Z,15.20
2018-09-21T04:59:48.571Z,15.16
2018-09-21T05:02:18.373Z,15.17
2018-09-21T05:04:47.855Z,15.16
2018-09-21T05:07:17.139Z,15.06
2018-09-21T05:09:46.355Z,15.04
2018-09-21T05:12:15.572Z,15.02
2018-09-21T05:14:44.853Z,14.98
2018-09-21T05:17:15.435Z,15.00
2018-09-21T05:19:44.499Z,15.10
2018-09-21T05:22:13.583Z,15.08
2018-09-21T05:24:42.449Z,15.21
2018-09-21T05:27:11.329Z,15.25
2018-09-21T05:29:40.307Z,15.32
2018-09-21T05:32:09.550Z,15.36
2018-09-21T05:34:40.226Z,15.54
2018-09-21T05:37:11.539Z,15.64
2018-09-21T05:39:40.872Z,15.66
2018-09-21T05:42:10.190Z,15.61
2018-09-21T05:44:39.484Z,15.62
2018-09-21T05:47:08.870Z,15.72
2018-09-21T05:49:38.726Z,15.92
2018-09-21T05:52:07.964Z,16.07
2018-09-21T05:54:37.407Z,16.29
2018-09-21T05:57:06.298Z,16.50
2018-09-21T05:59:35.161Z,16.62
2018-09-21T06:02:04.085Z,16.85
2018-09-21T06:04:32.944Z,17.09
2018-09-21T06:07:01.881Z,17.17
2018-09-21T06:09:30.837Z,17.29
2018-09-21T06:11:59.787Z,17.34
2018-09-21T06:14:28.747Z,17.61
2018-09-21T06:16:57.639Z,18.18
2018-09-21T06:19:27.251Z,18.82
2018-09-21T06:21:56.107Z,19.53
2018-09-21T06:24:25.010Z,20.17
2018-09-21T06:26:53.879Z,20.34
2018-09-21T06:29:22.820Z,20.19
2018-09-21T06:31:51.802Z,19.97
2018-09-21T06:34:20.764Z,19.76
2018-09-21T06:36:49.735Z,19.64
2018-09-21T06:39:18.621Z,19.61
2018-09-21T06:41:47.573Z,19.96
2018-09-21T06:44:16.457Z,20.70
2018-09-21T06:46:45.522Z,21.00
2018-09-21T06:49:14.475Z,21.14
2018-09-21T06:51:43.516Z,21.27
2018-09-21T06:54:12.383Z,21.18
2018-09-21T06:56:41.298Z,21.25
2018-09-21T06:59:10.191Z,21.44
2018-09-21T07:01:39.081Z,21.66
2018-09-21T07:04:08.414Z,21.71
2018-09-21T07:06:37.394Z,21.84
2018-09-21T07:09:10.217Z,22.40
2018-09-21T07:11:39.153Z,23.64
2018-09-21T07:14:08.023Z,24.08
2018-09-21T07:16:36.981Z,24.03
2018-09-21T07:19:06.088Z,23.76
2018-09-21T07:21:35.097Z,23.92
2018-09-21T07:24:03.992Z,24.40
2018-09-21T07:26:32.871Z,24.64
2018-09-21T07:29:01.851Z,24.78
2018-09-21T07:31:30.716Z,24.69
2018-09-21T07:33:59.686Z,24.68
2018-09-21T07:36:28.631Z,25.30
2018-09-21T07:38:57.883Z,25.56
2018-09-21T07:41:26.828Z,25.14
2018-09-21T07:43:55.731Z,25.21
2018-09-21T07:46:24.919Z,25.43
2018-09-21T07:48:53.871Z,25.44
2018-09-21T07:51:22.760Z,25.51
2018-09-21T07:53:51.648Z,25.62
2018-09-21T07:56:20.653Z,26.00
2018-09-21T07:58:49.557Z,26.31
2018-09-21T08:01:18.506Z,26.09
2018-09-21T08:03:47.448Z,25.71
2018-09-21T08:06:16.359Z,26.24
2018-09-21T08:08:45.316Z,26.26
2018-09-21T08:11:14.684Z,27.00
2018-09-21T08:13:43.557Z,27.04
2018-09-21T08:16:12.440Z,27.18
2018-09-21T08:18:41.345Z,27.62
2018-09-21T08:21:10.208Z,26.95
2018-09-21T08:23:39.090Z,26.50
2018-09-21T08:26:08.052Z,26.08
2018-09-21T08:28:36.948Z,25.81
2018-09-21T08:31:06.739Z,25.49
2018-09-21T08:33:35.689Z,25.49
2018-09-21T08:36:04.600Z,25.60
2018-09-21T08:38:33.512Z,25.97
2018-09-21T08:41:02.595Z,25.71
2018-09-21T08:43:31.460Z,25.54
2018-09-21T08:46:00.332Z,25.35
2018-09-21T08:48:29.190Z,25.15
2018-09-21T08:50:58.047Z,24.92
2018-09-21T08:53:26.915Z,24.93
2018-09-21T08:55:55.772Z,24.88
2018-09-21T08:58:24.640Z,25.05
2018-09-21T09:00:53.593Z,24.97
2018-09-21T09:03:22.580Z,25.28
2018-09-21T09:05:52.943Z,25.21
2018-09-21T09:08:23.252Z,25.39
2018-09-21T09:10:52.257Z,25.41
2018-09-21T09:13:21.446Z,25.57
2018-09-21T09:15:51.069Z,25.66
2018-09-21T09:18:20.239Z,25.69
2018-09-21T09:20:49.468Z,25.93
2018-09-21T09:23:18.528Z,26.12
2018-09-21T09:25:47.377Z,26.27
2018-09-21T09:28:16.292Z,26.37
2018-09-21T09:30:45.261Z,26.53
2018-09-21T09:33:14.231Z,26.78
2018-09-21T09:35:43.161Z,26.91
2018-09-21T09:38:12.055Z,26.82
2018-09-21T09:40:40.934Z,27.01
2018-09-21T09:43:09.871Z,27.35
2018-09-21T09:45:38.918Z,27.85
2018-09-21T09:48:07.982Z,27.52
2018-09-21T09:50:36.852Z,27.59
2018-09-21T09:53:06.212Z,27.69
2018-09-21T09:55:35.105Z,27.42
2018-09-21T09:58:04.084Z,27.47
2018-09-21T10:00:38.170Z,27.73
2018-09-21T10:03:07.186Z,27.64
2018-09-21T10:05:36.173Z,27.42
2018-09-21T10:08:05.825Z,27.48
2018-09-21T10:10:34.685Z,27.49
2018-09-21T10:13:03.618Z,26.84
2018-09-21T10:15:32.518Z,26.53
2018-09-21T10:18:01.459Z,26.86
2018-09-21T10:20:30.426Z,27.20
2018-09-21T10:22:59.320Z,27.69
2018-09-21T10:25:28.875Z,27.86
2018-09-21T10:27:58.043Z,27.82
2018-09-21T10:30:27.210Z,27.72
2018-09-21T10:32:56.097Z,27.82
2018-09-21T10:35:25.482Z,27.88
2018-09-21T10:37:54.670Z,27.47
2018-09-21T10:40:23.815Z,27.43
2018-09-21T10:42:52.704Z,27.32
2018-09-21T10:45:21.829Z,26.98
2018-09-21T10:47:50.960Z,26.78
2018-09-21T10:50:19.916Z,26.76
2018-09-21T10:52:48.820Z,26.57
2018-09-21T10:55:17.717Z,26.62
2018-09-21T10:57:46.672Z,26.50
2018-09-21T11:00:15.607Z,26.53
2018-09-21T11:02:44.534Z,26.46
2018-09-21T11:05:13.476Z,26.58
2018-09-21T11:07:42.472Z,26.50
2018-09-21T11:10:11.426Z,26.53
2018-09-21T11:12:40.344Z,26.56
2018-09-21T11:15:09.296Z,26.57
2018-09-21T11:17:38.181Z,26.44
2018-09-21T11:20:07.092Z,26.50
2018-09-21T11:22:36.009Z,26.46
2018-09-21T11:25:04.960Z,26.58
2018-09-21T11:27:33.858Z,26.58
2018-09-21T11:30:02.812Z,26.60
2018-09-21T11:32:31.723Z,26.51
2018-09-21T11:35:00.602Z,26.26
2018-09-21T11:37:30.041Z,26.31
2018-09-21T11:39:58.964Z,26.34
2018-09-21T11:42:27.839Z,26.19
2018-09-21T11:44:56.737Z,26.26
2018-09-21T11:47:25.709Z,26.17
2018-09-21T11:49:54.606Z,26.25
2018-09-21T11:52:23.513Z,26.39
2018-09-21T11:54:52.428Z,26.54
2018-09-21T11:57:21.323Z,26.68
2018-09-21T11:59:50.404Z,26.54
2018-09-21T12:02:19.352Z,26.54
2018-09-21T12:04:48.381Z,26.55
2018-09-21T12:07:17.756Z,26.39
2018-09-21T12:09:46.649Z,26.26
2018-09-21T12:12:15.828Z,26.36
2018-09-21T12:14:44.785Z,26.25
2018-09-21T12:17:13.716Z,26.12
2018-09-21T12:19:42.639Z,25.92
2018-09-21T12:22:11.848Z,25.83
2018-09-21T12:24:40.833Z,25.69
2018-09-21T12:27:09.808Z,25.63
2018-09-21T12:29:38.752Z,25.59
2018-09-21T12:32:07.679Z,25.61
2018-09-21T12:34:36.570Z,25.71
2018-09-21T12:37:06.397Z,25.75
2018-09-21T12:39:35.296Z,25.93
2018-09-21T12:42:04.232Z,25.91
2018-09-21T12:44:33.203Z,25.85
2018-09-21T12:47:02.054Z,26.02
2018-09-21T12:49:32.228Z,26.17
2018-09-21T12:52:01.197Z,25.92
2018-09-21T12:54:36.883Z,25.93
2018-09-21T12:57:05.809Z,25.86
2018-09-21T12:59:34.802Z,25.51
2018-09-21T13:02:03.747Z,25.54
2018-09-21T13:04:32.635Z,25.60
2018-09-21T13:07:01.500Z,25.64
2018-09-21T13:09:30.864Z,25.53
2018-09-21T13:11:59.895Z,25.55
2018-09-21T13:14:29.713Z,25.66
2018-09-21T13:16:58.572Z,25.69
2018-09-21T13:19:28.016Z,25.73
2018-09-21T13:21:56.936Z,25.61
2018-09-21T13:24:26.105Z,25.61
2018-09-21T13:26:55.128Z,25.43
2018-09-21T13:29:23.949Z,25.38
2018-09-21T13:31:52.866Z,25.32
2018-09-21T13:34:21.769Z,25.20
2018-09-21T13:36:50.672Z,25.10
2018-09-21T13:39:19.583Z,25.07
2018-09-21T13:41:48.579Z,25.00
2018-09-21T13:44:17.509Z,24.99
2018-09-21T13:46:46.829Z,25.01
2018-09-21T13:49:15.704Z,24.91
2018-09-21T13:51:44.730Z,24.98
2018-09-21T13:54:13.651Z,24.97
2018-09-21T13:56:42.550Z,24.89
2018-09-21T13:59:11.439Z,24.80
2018-09-21T14:01:44.617Z,24.76
2018-09-21T14:04:13.531Z,24.69
2018-09-21T14:06:45.584Z,24.63
2018-09-21T14:09:14.476Z,24.51
2018-09-21T14:11:43.378Z,24.45
2018-09-21T14:14:16.676Z,24.40
2018-09-21T14:16:45.667Z,24.44
2018-09-21T14:19:14.646Z,24.44
2018-09-21T14:21:43.577Z,24.40
2018-09-21T14:24:12.436Z,24.38
2018-09-21T14:26:41.383Z,24.40
2018-09-21T14:29:10.591Z,24.33
2018-09-21T14:31:39.691Z,24.24
2018-09-21T14:34:09.323Z,24.18
2018-09-21T14:36:38.312Z,24.20
2018-09-21T14:39:09.820Z,24.23
2018-09-21T14:41:38.840Z,24.31
2018-09-21T14:44:08.266Z,24.22
2018-09-21T14:46:37.587Z,24.13
2018-09-21T14:49:06.559Z,24.13
2018-09-21T14:51:35.464Z,24.06
2018-09-21T14:54:04.516Z,24.03
2018-09-21T14:56:33.940Z,24.00
2018-09-21T14:59:03.311Z,23.97
2018-09-21T15:01:32.591Z,23.98
2018-09-21T15:04:01.871Z,23.94
2018-09-21T15:06:30.789Z,23.92
2018-09-21T15:08:59.688Z,23.90
2018-09-21T15:11:28.659Z,23.90
2018-09-21T15:13:57.636Z,23.82
2018-09-21T15:16:26.550Z,23.85
2018-09-21T15:18:55.488Z,23.89
2018-09-21T15:21:24.391Z,23.80
2018-09-21T15:23:53.348Z,23.78
2018-09-21T15:26:22.240Z,23.74
2018-09-21T15:28:51.113Z,23.75
2018-09-21T15:31:20.157Z,23.71
2018-09-21T15:33:49.455Z,23.70
2018-09-21T15:36:18.487Z,23.67
2018-09-21T15:38:47.480Z,23.66
2018-09-21T15:41:16.812Z,23.64
2018-09-21T15:43:46.661Z,23.59
2018-09-21T15:46:17.428Z,23.57
2018-09-21T15:48:47.365Z,23.49
2018-09-21T15:51:16.853Z,23.39
2018-09-21T15:53:46.936Z,23.34
2018-09-21T15:56:16.235Z,23.35
2018-09-21T15:58:45.551Z,23.33
2018-09-21T16:01:14.846Z,23.32
2018-09-21T16:03:43.825Z,23.23
2018-09-21T16:06:12.799Z,23.21
2018-09-21T16:08:41.790Z,22.83
2018-09-21T16:11:10.712Z,22.24
2018-09-21T16:13:40.100Z,21.63
2018-09-21T16:16:09.245Z,21.33
2018-09-21T16:18:38.214Z,20.47
2018-09-21T16:21:07.705Z,20.27
2018-09-21T16:23:36.823Z,18.96
2018-09-21T16:26:06.083Z,18.12
2018-09-21T16:28:35.324Z,17.10
2018-09-21T16:31:04.780Z,17.06
2018-09-21T16:33:34.104Z,16.50
2018-09-21T16:36:03.333Z,16.19
2018-09-21T16:38:32.265Z,16.27
2018-09-21T16:41:01.224Z,15.79
2018-09-21T16:43:30.417Z,15.57
2018-09-21T16:45:59.356Z,15.49
2018-09-21T16:48:28.332Z,15.52
2018-09-21T16:50:57.323Z,15.31
2018-09-21T16:53:26.283Z,15.43
2018-09-21T16:55:55.593Z,15.22
2018-09-21T16:58:24.683Z,15.04
2018-09-21T17:00:54.155Z,14.87
2018-09-21T17:03:23.340Z,14.74
2018-09-21T17:05:53.101Z,14.73
2018-09-21T17:08:22.312Z,14.50
2018-09-21T17:10:51.503Z,14.38
2018-09-21T17:13:20.522Z,14.42
2018-09-21T17:15:49.458Z,14.33
2018-09-21T17:18:18.685Z,14.04
2018-09-21T17:20:47.689Z,14.10
2018-09-21T17:23:17.047Z,14.06
2018-09-21T17:25:46.397Z,14.14
2018-09-21T17:28:16.247Z,14.21
2018-09-21T17:30:45.661Z,14.00
2018-09-21T17:33:14.765Z,14.04
2018-09-21T17:35:44.108Z,14.00
2018-09-21T17:38:13.460Z,13.80
2018-09-21T17:40:42.871Z,13.67
2018-09-21T17:43:12.368Z,13.22
2018-09-21T17:45:41.752Z,13.14
2018-09-21T17:48:11.061Z,13.10
2018-09-21T17:50:40.263Z,13.08
2018-09-21T17:53:09.512Z,13.05
2018-09-21T17:55:38.875Z,13.05
2018-09-21T17:58:08.104Z,12.83
2018-09-21T18:00:37.399Z,13.02
2018-09-21T18:03:07.094Z,13.00
2018-09-21T18:05:36.395Z,12.80
2018-09-21T18:08:05.760Z,12.68
2018-09-21T18:10:35.016Z,12.68
2018-09-21T18:13:04.456Z,12.66
2018-09-21T18:15:33.712Z,12.70
2018-09-21T18:18:03.120Z,12.64
2018-09-21T18:20:32.324Z,12.53
2018-09-21T18:23:01.718Z,12.62
2018-09-21T18:25:31.078Z,12.74
2018-09-21T18:27:59.956Z,12.89
2018-09-21T18:30:29.084Z,13.03
2018-09-21T18:32:58.256Z,12.98
2018-09-21T18:35:33.503Z,12.90
2018-09-21T18:38:02.406Z,12.90
2018-09-21T18:40:31.365Z,13.10
2018-09-21T18:43:00.259Z,13.10
2018-09-21T18:45:29.268Z,12.98
2018-09-21T18:47:58.232Z,13.08
2018-09-21T18:50:27.182Z,13.05
2018-09-21T18:52:56.428Z,12.87
2018-09-21T18:55:25.363Z,12.86
2018-09-21T18:57:54.357Z,12.97
2018-09-21T19:00:23.304Z,12.86
2018-09-21T19:02:52.251Z,12.80
2018-09-21T19:05:21.281Z,12.83
2018-09-21T19:07:50.189Z,12.87
2018-09-21T19:10:19.067Z,12.88
2018-09-21T19:12:47.989Z,12.96
2018-09-21T19:15:16.863Z,12.97
2018-09-21T19:17:45.768Z,12.94
2018-09-21T19:20:14.667Z,12.74
2018-09-21T19:22:43.691Z,12.76
2018-09-21T19:25:12.586Z,12.74
2018-09-21T19:27:41.584Z,12.73
2018-09-21T19:30:10.521Z,12.66
2018-09-21T19:32:39.428Z,12.72
2018-09-21T19:35:08.377Z,12.63
2018-09-21T19:37:37.308Z,12.78
2018-09-21T19:40:06.329Z,12.80
2018-09-21T19:42:35.253Z,12.68
2018-09-21T19:45:04.296Z,12.71
2018-09-21T19:47:33.135Z,12.70
2018-09-21T19:50:02.024Z,12.76
2018-09-21T19:52:30.888Z,12.80
2018-09-21T19:55:00.005Z,12.81
2018-09-21T19:57:28.860Z,12.82
2018-09-21T19:59:57.810Z,12.80
2018-09-21T20:02:26.781Z,12.73
2018-09-21T20:04:55.822Z,12.73
2018-09-21T20:07:24.703Z,12.67
2018-09-21T20:09:53.604Z,12.76
2018-09-21T20:12:22.552Z,12.65
2018-09-21T20:14:51.429Z,12.73
2018-09-21T20:17:20.290Z,12.75
2018-09-21T20:19:49.194Z,12.77
2018-09-21T20:22:18.268Z,12.71
2018-09-21T20:24:47.143Z,12.79
2018-09-21T20:27:16.032Z,12.84
2018-09-21T20:29:44.908Z,12.84
2018-09-21T20:32:18.896Z,12.78
2018-09-21T20:34:47.835Z,12.84
2018-09-21T20:37:16.801Z,12.88
2018-09-21T20:39:45.696Z,12.88
2018-09-21T20:42:14.588Z,12.87
2018-09-21T20:44:43.542Z,12.88
2018-09-21T20:47:12.401Z,12.84
2018-09-21T20:49:41.376Z,12.79
2018-09-21T20:52:10.275Z,12.83
2018-09-21T20:54:39.151Z,12.91
2018-09-21T20:57:08.066Z,12.94
2018-09-21T20:59:37.149Z,12.96
2018-09-21T21:02:06.087Z,12.99
2018-09-21T21:04:35.043Z,12.86
2018-09-21T21:07:04.074Z,12.92
2018-09-21T21:09:33.007Z,13.06
2018-09-21T21:12:01.911Z,13.02
2018-09-21T21:14:31.069Z,13.10
2018-09-21T21:17:00.035Z,13.11
2018-09-21T21:19:28.988Z,13.14
2018-09-21T21:21:57.927Z,13.17
2018-09-21T21:24:26.781Z,13.21
2018-09-21T21:26:55.782Z,13.36
2018-09-21T21:29:24.856Z,13.18
2018-09-21T21:31:54.387Z,13.07
2018-09-21T21:34:23.411Z,13.05
2018-09-21T21:36:52.678Z,13.04
2018-09-21T21:39:21.756Z,13.08
2018-09-21T21:41:51.925Z,13.11
2018-09-21T21:44:21.198Z,13.05
2018-09-21T21:46:50.347Z,13.14
2018-09-21T21:49:19.441Z,13.16
2018-09-21T21:51:48.348Z,13.06
2018-09-21T21:54:17.528Z,13.07
2018-09-21T21:56:47.971Z,13.18
2018-09-21T21:59:17.239Z,13.06
2018-09-21T22:01:47.640Z,13.00
2018-09-21T22:04:17.937Z,12.97
2018-09-21T22:06:48.293Z,12.97
2018-09-21T22:09:17.357Z,13.09
2018-09-21T22:11:51.324Z,13.12
2018-09-21T22:14:23.891Z,13.11
2018-09-21T22:16:53.116Z,13.08
2018-09-21T22:19:22.233Z,13.09
2018-09-21T22:21:51.145Z,13.17
2018-09-21T22:24:20.108Z,13.14
2018-09-21T22:26:49.049Z,13.18
2018-09-21T22:29:17.964Z,13.10
2018-09-21T22:31:47.056Z,13.05
2018-09-21T22:34:15.958Z,13.10
2018-09-21T22:36:46.637Z,13.12
2018-09-21T22:39:15.636Z,13.08
2018-09-21T22:42:19.723Z,13.12
2018-09-21T22:44:49.553Z,13.16
2018-09-21T22:47:19.002Z,13.16
2018-09-21T22:49:48.340Z,13.13
2018-09-21T22:52:17.631Z,13.06
2018-09-21T22:54:47.151Z,13.16
2018-09-21T22:57:16.540Z,13.13
2018-09-21T22:59:45.837Z,12.95
2018-09-21T23:02:15.144Z,13.02
2018-09-21T23:04:44.387Z,13.06
2018-09-21T23:07:13.698Z,12.98
2018-09-21T23:09:43.020Z,12.90
2018-09-21T23:12:12.999Z,12.92
2018-09-21T23:14:42.333Z,12.95
2018-09-21T23:17:11.652Z,12.81
2018-09-21T23:19:41.025Z,12.65
2018-09-21T23:22:10.369Z,12.59
2018-09-21T23:24:39.662Z,12.59
2018-09-21T23:27:08.647Z,12.56
2018-09-21T23:29:37.532Z,12.55
2018-09-21T23:32:06.447Z,12.49
2018-09-21T23:34:35.608Z,12.45
2018-09-21T23:37:04.545Z,12.46
2018-09-21T23:39:33.412Z,12.46
2018-09-21T23:42:02.327Z,12.42
2018-09-21T23:44:31.192Z,12.59
2018-09-21T23:47:00.060Z,12.61
2018-09-21T23:49:28.923Z,12.57
2018-09-21T23:51:57.820Z,12.44
2018-09-21T23:54:26.771Z,12.38
2018-09-21T23:56:55.659Z,12.38
2018-09-21T23:59:24.563Z,12.38
